Station: Coober Pedy Airport

  Atmospheric Gas Attenuation - ITU Rec 676-11   --------------- db/100km ---------------
Date Time Temp RH % AH g/m3 Dew Point Wind Direction Speed kph Gust kph Barometer mB Rainfall Since 9am 24GHz 47GHz 76GHz 122GHz 134GHz 241GHz
21 18:50 20.2 25 4.37 -0.4 24 28 1013.7 0 10.4 18.3 22.4 58.1 43.4 146.0
21 18:40 20.4 24 4.25 -0.8 24 30 1013.6 0 10.2 18.1 22.0 56.9 42.0 141.4
21 18:30 20.7 24 4.32 -0.6 32 43 1012.8 0 10.3 18.1 22.1 57.2 42.6 143.3
21 18:20 21 23 4.21 -0.9 28 33 1013.3 0 10.1 17.9 21.7 56.2 41.3 138.9
21 18:10 21.3 22 4.1 -1.3 44 48 1013 0 9.8 17.7 21.3 55.1 40.0 134.5
21 18:00 21.6 22 4.17 -1 35 46 1012.3 0 10.0 17.8 21.4 55.4 40.6 136.4
21 17:50 21.9 21 4.05 -1.4 33 37 1012.7 0 9.7 17.6 21.0 54.2 39.2 131.7
21 17:40 22.1 21 4.1 -1.2 35 41 1012.4 0 9.8 17.6 21.1 54.5 39.6 133.1
21 17:30 22.4 20 3.97 -1.6 35 46 1011.7 0 9.5 17.3 20.6 53.2 38.2 128.1
21 17:20 22.5 19 3.79 -2.2 35 41 1012.1 0 9.2 17.1 20.0 51.8 36.4 121.8
21 17:10 22.7 19 3.84 -2.1 37 43 1012 0 9.3 17.1 20.1 52.0 36.8 123.2
21 17:00 22.8 19 3.86 -2 37 50 1011.3 0 9.3 17.1 20.2 52.1 36.9 123.6
21 16:50 23 19 3.9 -1.8 43 46 1011.9 0 9.4 17.2 20.2 52.3 37.2 124.8
21 16:40 22.9 19 3.88 -1.9 33 41 1011.8 0 9.3 17.1 20.2 52.2 37.1 124.2
21 16:30 23.3 18 3.76 -2.3 37 54 1011.2 0 9.1 16.9 19.7 51.0 35.7 119.5
21 16:20 23 19 3.9 -1.8 35 39 1011.6 0 9.4 17.1 20.2 52.3 37.2 124.7
21 16:10 23.1 18 3.72 -2.5 35 44 1011.5 0 9.0 16.9 19.7 50.8 35.4 118.4
21 16:00 23.2 18 3.74 -2.4 35 46 1010.9 0 9.0 16.9 19.7 50.9 35.6 118.9
21 15:50 23.1 18 3.72 -2.5 43 50 1011.4 0 9.0 16.9 19.7 50.8 35.4 118.4
21 15:40 22.9 18 3.68 -2.6 32 35 1011.4 0 8.9 16.9 19.6 50.6 35.1 117.4
21 15:30 23.2 17 3.53 -3.2 41 50 1010.9 0 8.6 16.7 19.1 49.2 33.6 111.8
21 15:19 23.3 17 3.55 -3.1 33 37 1011.4 0 8.6 16.7 19.1 49.4 33.7 112.4
21 15:10 23.4 16 3.36 -3.8 37 43 1011.6 0 8.2 16.4 18.6 47.9 31.9 105.9
21 15:00 23.2 16 3.33 -4 41 54 1011.1 0 8.2 16.4 18.5 47.7 31.7 105.1
21 14:50 23.1 17 3.51 -3.3 30 41 1011.6 0 8.6 16.7 19.1 49.2 33.4 111.4
21 14:40 23.3 18 3.76 -2.3 28 43 1011.7 0 9.1 16.9 19.8 51.0 35.7 119.6
21 14:30 23.2 17 3.53 -3.2 35 52 1011.3 0 8.6 16.7 19.1 49.3 33.6 111.9
21 14:20 23.2 18 3.74 -2.4 46 52 1012 0 9.0 16.9 19.7 50.9 35.6 119.0
21 14:10 23.4 17 3.57 -3 33 41 1011.9 0 8.7 16.7 19.2 49.5 33.9 113.0
21 14:00 22.7 19 3.84 -2.1 39 52 1011.5 0 9.3 17.1 20.1 52.0 36.8 123.1
21 13:50 22.7 19 3.84 -2.1 39 43 1012.2 0 9.3 17.1 20.1 52.0 36.8 123.2
21 13:40 22.4 20 3.97 -1.6 39 46 1012.2 0 9.5 17.4 20.6 53.2 38.2 128.1
21 13:30 22.3 19 3.75 -2.4 35 48 1011.9 0 9.1 17.1 20.0 51.5 36.1 120.6
21 13:20 22.4 19 3.77 -2.3 32 35 1012.4 0 9.1 17.1 20.0 51.7 36.3 121.2
21 13:10 22.3 19 3.75 -2.4 33 37 1012.5 0 9.1 17.1 20.0 51.6 36.1 120.7
21 13:00 22.1 20 3.9 -1.9 37 50 1012.2 0 9.4 17.3 20.5 52.9 37.7 126.1
21 12:50 21.9 21 4.05 -1.4 33 41 1012.6 0 9.7 17.6 21.0 54.2 39.2 131.7
21 12:40 21.9 22 4.24 -0.8 28 33 1012.8 0 10.1 17.8 21.6 55.8 41.1 138.4
21 12:30 22.3 21 4.15 -1.1 33 48 1012.5 0 9.9 17.6 21.2 54.8 40.0 134.6
21 12:20 22.1 19 3.71 -2.6 39 52 1013.2 0 9.0 17.1 19.9 51.4 35.8 119.7
21 12:10 21.7 19 3.62 -2.9 35 46 1013.3 0 8.8 17.1 19.8 51.0 35.1 117.2
21 12:00 21.2 21 3.89 -2 37 46 1012.8 0 9.4 17.5 20.7 53.4 38.0 127.2
21 11:50 21.1 20 3.68 -2.7 39 44 1013.4 0 9.0 17.3 20.1 51.8 36.0 120.1
21 11:40 21.9 20 3.86 -2 32 35 1013.5 0 9.3 17.4 20.4 52.8 37.4 125.2
21 11:30 20.5 20 3.56 -3.2 37 56 1012.9 0 8.7 17.2 19.9 51.2 35.0 116.7
21 11:20 20.7 21 3.78 -2.4 28 33 1013.6 0 9.2 17.5 20.5 52.9 37.1 124.2
21 11:10 21.1 21 3.87 -2 32 35 1013.7 0 9.4 17.5 20.7 53.4 37.9 126.8
21 11:00 20.8 21 3.8 -2.3 35 48 1013 0 9.2 17.5 20.5 52.9 37.3 124.7
21 10:50 20.8 21 3.8 -2.3 37 43 1013.8 0 9.2 17.5 20.5 53.0 37.3 124.8
21 10:40 20.3 22 3.87 -2.1 32 35 1013.9 0 9.4 17.7 20.9 53.9 38.2 128.0
21 10:30 19.8 22 3.76 -2.5 37 50 1013.2 0 9.2 17.6 20.6 53.3 37.3 124.7
21 10:20 19.7 22 3.74 -2.6 39 50 1014 0 9.1 17.6 20.6 53.2 37.2 124.3
21 10:10 19.6 22 3.71 -2.7 30 35 1014 0 9.1 17.6 20.6 53.0 36.9 123.4
21 10:00 19.8 22 3.76 -2.5 35 43 1013.4 0 9.2 17.6 20.6 53.3 37.3 124.8
21 09:50 19.1 23 3.77 -2.5 37 43 1014.1 0 9.2 17.8 20.9 53.9 37.8 126.2
21 09:40 19 23 3.75 -2.6 33 41 1014 0 9.2 17.8 20.8 53.8 37.6 125.7
21 09:30 18.6 22 3.5 -3.5 28 39 1013.5 0 8.7 17.5 20.1 51.9 35.2 117.2
21 09:20 18.5 23 3.64 -3 26 28 1014 0 9.0 17.7 20.6 53.2 36.7 122.5
21 09:10 18.5 22 3.48 -3.6 26 30 1014 0 8.6 17.5 20.1 51.9 35.1 116.7
21 09:00 18.2 24 3.73 -2.7 22 28 1013.4 0 9.1 17.9 20.9 54.1 37.8 126.1
21 08:50 17.9 25 3.82 -2.4 19 24 1013.9 0 9.3 18.1 21.3 55.0 38.8 129.9
21 08:40 17.4 27 4 -1.8 17 19 1013.9 0 9.7 18.4 22.0 56.9 41.0 137.3
21 08:30 16.7 30 4.26 -0.9 13 17 1013.3 0 10.3 18.8 23.0 59.6 44.1 148.1
21 08:20 16.1 33 4.52 -0.2 13 15 1013.8 0 10.9 19.3 24.0 62.3 47.2 159.1
21 08:10 15.5 34 4.49 -0.3 15 17 1013.7 0 10.8 19.4 24.1 62.5 47.2 159.1
21 08:00 15 38 4.87 0.8 13 15 1013 0 11.6 20.0 25.5 66.3 51.7 174.9
21 07:50 14.3 39 4.79 0.5 13 17 1013.5 0 11.5 20.1 25.5 66.1 51.3 173.3
21 07:40 13.7 41 4.86 0.7 13 15 1013.5 0 11.6 20.3 25.9 67.3 52.5 177.3
21 07:30 12.9 45 5.07 1.3 13 17 1012.7 0 12.1 20.7 26.9 69.8 55.4 187.5
21 07:20 12.1 48 5.15 1.4 11 13 1013.3 0 12.3 21.0 27.4 71.3 56.9 192.8
21 07:10 11.3 52 5.3 1.8 13 15 1013.2 0 12.7 21.4 28.2 73.5 59.3 201.0
21 07:00 10.4 56 5.4 2 13 15 1012.6 0 12.9 21.8 28.9 75.3 61.1 207.4
21 06:50 9.6 58 5.31 1.8 13 15 1013.2 0 12.7 21.9 28.9 75.2 60.7 205.7
21 06:40 9.2 59 5.27 1.6 15 15 1013.2 0 12.7 21.9 28.9 75.2 60.5 205.0
21 06:29 8.9 60 5.26 1.6 15 17 1013.1 0 12.7 22.0 28.9 75.3 60.6 205.3
21 06:20 9.4 58 5.25 1.6 13 15 1013 0 12.6 21.8 28.7 74.8 60.1 203.6
21 06:10 9.2 59 5.27 1.6 13 13 1013 0 12.7 21.9 28.8 75.1 60.5 205.0
21 06:00 9.1 59 5.24 1.5 11 15 1012.3 0 12.6 21.8 28.7 74.9 60.2 203.8
21 05:50 9.4 58 5.25 1.6 9 11 1012.7 0 12.6 21.8 28.7 74.7 60.1 203.5
21 05:40 10 56 5.26 1.6 9 11 1012.5 0 12.6 21.7 28.5 74.3 59.7 202.4
21 05:30 10.6 55 5.37 1.9 0 2 1011.9 0 12.8 21.7 28.7 74.7 60.6 205.5
21 05:20 11.1 51 5.14 1.4 0 0 1012.2 0 12.3 21.2 27.7 72.1 57.5 194.6
21 05:10 10.7 53 5.21 1.5 7 9 1012.1 0 12.5 21.4 28.1 73.1 58.6 198.5
21 04:50 10.8 51 5.04 1.1 6 6 1011.7 0 12.1 21.1 27.4 71.3 56.4 191.0
21 04:40 11 49 4.91 0.7 9 11 1011.6 0 11.8 20.9 26.9 69.9 54.8 185.1
21 04:30 10.8 51 5.04 1.1 9 11 1011.1 0 12.1 21.1 27.4 71.3 56.4 190.9
21 04:20 11.1 50 5.04 1.1 9 9 1011.5 0 12.1 21.1 27.3 71.0 56.2 190.3
21 04:10 11.1 51 5.14 1.4 9 11 1011.4 0 12.3 21.2 27.7 72.0 57.4 194.4
21 04:00 11.3 50 5.1 1.3 9 11 1011 0 12.2 21.1 27.4 71.4 56.8 192.2
21 03:50 11.2 50 5.07 1.2 7 9 1011.5 0 12.2 21.1 27.4 71.2 56.5 191.3
21 03:40 11.7 47 4.92 0.8 9 11 1011.4 0 11.8 20.7 26.7 69.4 54.4 183.9
21 03:30 12.1 43 4.61 -0.1 7 9 1010.9 0 11.2 20.2 25.4 66.1 50.5 170.3
21 03:20 12.4 42 4.59 -0.1 7 7 1011.3 0 11.1 20.1 25.3 65.7 50.1 168.9
21 03:10 12.6 42 4.65 0 9 9 1011.1 0 11.2 20.2 25.4 66.0 50.7 170.9
21 03:00 12.7 42 4.68 0.1 11 13 1010.7 0 11.3 20.2 25.5 66.2 50.9 171.8
21 02:50 13 40 4.54 -0.3 11 13 1010.9 0 11.0 19.9 24.9 64.7 49.1 165.6
21 02:40 13.5 38 4.44 -0.5 11 13 1010.9 0 10.8 19.7 24.4 63.4 47.7 160.7
21 02:30 13.9 36 4.32 -0.9 13 15 1010.2 0 10.5 19.4 23.9 62.0 46.1 155.1
21 02:20 14 35 4.22 -1.2 13 13 1010.8 0 10.3 19.3 23.5 61.0 45.0 151.1
21 02:10 14.3 34 4.18 -1.3 11 13 1010.8 0 10.2 19.1 23.3 60.4 44.4 149.0

Last Refresh: 21-Sep-2020 18:55:59

Most of the information presented on this site is sourced from the Bureau of Meteorology.  Copyright in all material sourced from the Bureau of Meteorology resides with the Commonwealth of Australia.